createdAt,value
2022-09-11T00:00:18.090Z,12.83
2022-09-11T00:02:48.529Z,12.57
2022-09-11T00:05:18.859Z,12.49
2022-09-11T00:07:49.834Z,12.59
2022-09-11T00:10:20.353Z,12.39
2022-09-11T00:12:51.097Z,12.39
2022-09-11T00:15:21.501Z,12.42
2022-09-11T00:17:51.877Z,12.43
2022-09-11T00:20:22.754Z,12.46
2022-09-11T00:22:54.821Z,12.46
2022-09-11T00:25:25.238Z,12.49
2022-09-11T00:27:56.076Z,12.41
2022-09-11T00:30:26.523Z,12.11
2022-09-11T00:32:57.747Z,12.06
2022-09-11T00:35:28.279Z,12.25
2022-09-11T00:37:58.687Z,12.38
2022-09-11T00:40:29.119Z,12.41
2022-09-11T00:42:59.827Z,12.39
2022-09-11T00:45:30.595Z,12.36
2022-09-11T00:48:01.884Z,12.43
2022-09-11T00:50:33.979Z,12.46
2022-09-11T00:53:11.344Z,12.49
2022-09-11T00:55:46.431Z,12.56
2022-09-11T00:58:22.476Z,12.55
2022-09-11T01:00:54.381Z,12.49
2022-09-11T01:03:28.178Z,12.50
2022-09-11T01:06:00.225Z,12.48
2022-09-11T01:08:34.314Z,12.34
2022-09-11T01:11:45.510Z,12.26
2022-09-11T01:14:40.068Z,12.28
2022-09-11T01:17:30.144Z,12.32
2022-09-11T01:20:11.495Z,12.26
2022-09-11T01:22:48.266Z,12.28
2022-09-11T01:25:40.323Z,12.28
2022-09-11T01:28:45.404Z,12.10
2022-09-11T01:31:23.541Z,12.01
2022-09-11T01:34:02.023Z,12.05
2022-09-11T01:36:43.987Z,11.99
2022-09-11T01:39:20.337Z,11.99
2022-09-11T01:41:56.894Z,11.94
2022-09-11T01:44:42.773Z,11.98
2022-09-11T01:47:14.988Z,11.97
2022-09-11T01:50:07.530Z,11.97
2022-09-11T01:52:47.047Z,11.97
2022-09-11T01:55:46.068Z,11.97
2022-09-11T01:58:33.529Z,11.93
2022-09-11T02:01:11.719Z,11.97
2022-09-11T02:03:47.906Z,11.93
2022-09-11T02:06:28.172Z,11.87
2022-09-11T02:09:07.702Z,11.85
2022-09-11T02:11:43.908Z,11.80
2022-09-11T02:14:26.008Z,11.75
2022-09-11T02:17:19.566Z,11.57
2022-09-11T02:19:50.595Z,11.53
2022-09-11T02:22:22.356Z,11.52
2022-09-11T02:24:53.548Z,11.53
2022-09-11T02:27:28.615Z,11.52
2022-09-11T02:30:00.329Z,11.50
2022-09-11T02:32:37.908Z,11.44
2022-09-11T02:35:09.090Z,11.39
2022-09-11T02:37:51.861Z,11.34
2022-09-11T02:40:59.714Z,11.34
2022-09-11T02:43:59.272Z,11.26
2022-09-11T02:46:42.875Z,11.22
2022-09-11T02:49:56.118Z,11.19
2022-09-11T02:52:32.503Z,11.15
2022-09-11T02:55:14.754Z,11.15
2022-09-11T02:58:30.632Z,11.09
2022-09-11T03:01:04.006Z,10.85
2022-09-11T03:03:46.695Z,10.62
2022-09-11T03:06:25.909Z,10.62
2022-09-11T03:08:57.055Z,10.69
2022-09-11T03:11:27.687Z,10.81
2022-09-11T03:14:00.039Z,10.93
2022-09-11T03:16:30.795Z,10.93
2022-09-11T03:19:01.893Z,10.91
2022-09-11T03:21:34.072Z,10.95
2022-09-11T03:24:05.245Z,10.96
2022-09-11T03:26:38.837Z,10.91
2022-09-11T03:29:09.879Z,10.44
2022-09-11T03:31:40.369Z,10.41
2022-09-11T03:34:11.785Z,10.55
2022-09-11T03:36:43.257Z,10.37
2022-09-11T03:39:14.182Z,10.30
2022-09-11T03:41:44.689Z,10.41
2022-09-11T03:44:15.240Z,10.41
2022-09-11T03:46:47.002Z,10.18
2022-09-11T03:49:17.625Z,10.03
2022-09-11T03:51:49.100Z,10.20
2022-09-11T03:54:19.623Z,10.44
2022-09-11T03:56:50.225Z,10.55
2022-09-11T03:59:21.752Z,10.58
2022-09-11T04:01:53.782Z,10.44
2022-09-11T04:04:24.607Z,10.14
2022-09-11T04:06:55.082Z,10.04
2022-09-11T04:09:26.250Z,10.13
2022-09-11T04:11:56.953Z,10.37
2022-09-11T04:14:30.506Z,10.44
2022-09-11T04:17:01.852Z,10.54
2022-09-11T04:19:32.631Z,10.36
2022-09-11T04:22:03.292Z,10.27
2022-09-11T04:24:36.650Z,10.37
2022-09-11T04:27:06.927Z,10.42
2022-09-11T04:29:37.358Z,10.48
2022-09-11T04:32:12.863Z,10.44
2022-09-11T04:34:43.689Z,10.42
2022-09-11T04:37:13.967Z,10.40
2022-09-11T04:39:45.325Z,10.36
2022-09-11T04:42:18.452Z,10.36
2022-09-11T04:44:48.963Z,10.27
2022-09-11T04:47:19.797Z,10.29
2022-09-11T04:49:50.994Z,10.25
2022-09-11T04:52:22.101Z,10.27
2022-09-11T04:54:52.571Z,10.24
2022-09-11T04:57:23.020Z,10.17
2022-09-11T04:59:54.159Z,10.24
2022-09-11T05:02:24.971Z,10.24
2022-09-11T05:04:57.333Z,10.24
2022-09-11T05:07:27.979Z,10.18
2022-09-11T05:09:59.058Z,9.97
2022-09-11T05:12:30.802Z,9.62
2022-09-11T05:15:01.939Z,9.76
2022-09-11T05:17:34.588Z,9.96
2022-09-11T05:20:11.682Z,9.91
2022-09-11T05:22:42.425Z,9.85
2022-09-11T05:25:15.286Z,9.89
2022-09-11T05:27:46.611Z,9.78
2022-09-11T05:30:16.597Z,9.58
2022-09-11T05:32:46.687Z,9.18
2022-09-11T05:35:18.360Z,9.10
2022-09-11T05:37:48.373Z,9.12
2022-09-11T05:40:18.916Z,9.10
2022-09-11T05:42:49.419Z,9.05
2022-09-11T05:45:20.214Z,9.00
2022-09-11T05:47:54.206Z,8.97
2022-09-11T05:50:27.159Z,9.12
2022-09-11T05:52:57.503Z,9.24
2022-09-11T05:55:28.177Z,9.15
2022-09-11T05:57:59.398Z,8.98
2022-09-11T06:00:31.911Z,8.90
2022-09-11T06:03:02.396Z,8.84
2022-09-11T06:05:32.894Z,8.91
2022-09-11T06:08:06.192Z,8.78
2022-09-11T06:10:38.170Z,8.77
2022-09-11T06:13:09.235Z,8.85
2022-09-11T06:15:49.560Z,8.81
2022-09-11T06:18:20.311Z,8.76
2022-09-11T06:21:03.259Z,8.78
2022-09-11T06:23:43.222Z,8.80
2022-09-11T06:26:16.881Z,8.73
2022-09-11T06:28:49.314Z,8.68
2022-09-11T06:31:23.566Z,8.60
2022-09-11T06:33:56.260Z,8.66
2022-09-11T06:36:28.726Z,8.84
2022-09-11T06:39:01.275Z,8.81
2022-09-11T06:41:32.124Z,8.61
2022-09-11T06:44:11.320Z,8.63
2022-09-11T06:46:42.981Z,8.70
2022-09-11T06:49:15.752Z,8.57
2022-09-11T06:52:04.592Z,8.83
2022-09-11T06:54:36.143Z,8.92
2022-09-11T06:57:12.336Z,8.91
2022-09-11T06:59:43.831Z,8.87
2022-09-11T07:02:14.434Z,8.68
2022-09-11T07:04:44.941Z,8.68
2022-09-11T07:07:16.163Z,8.73
2022-09-11T07:09:46.497Z,8.57
2022-09-11T07:12:17.306Z,8.68
2022-09-11T07:14:48.738Z,8.67
2022-09-11T07:17:20.829Z,8.59
2022-09-11T07:19:53.703Z,8.50
2022-09-11T07:22:24.196Z,8.54
2022-09-11T07:24:55.922Z,8.50
2022-09-11T07:27:26.527Z,8.37
2022-09-11T07:29:57.216Z,8.39
2022-09-11T07:32:28.825Z,8.35
2022-09-11T07:34:59.220Z,8.37
2022-09-11T07:37:29.908Z,8.35
2022-09-11T07:40:01.208Z,8.37
2022-09-11T07:42:35.254Z,8.35
2022-09-11T07:45:05.907Z,8.25
2022-09-11T07:47:37.433Z,8.16
2022-09-11T07:50:08.305Z,8.32
2022-09-11T07:52:39.400Z,8.35
2022-09-11T07:55:10.420Z,8.30
2022-09-11T07:57:40.871Z,8.15
2022-09-11T08:00:14.108Z,8.16
2022-09-11T08:02:50.956Z,8.19
2022-09-11T08:05:31.770Z,8.25
2022-09-11T08:08:01.967Z,8.10
2022-09-11T08:10:33.331Z,8.13
2022-09-11T08:13:09.430Z,8.28
2022-09-11T08:15:49.234Z,8.43
2022-09-11T08:18:22.172Z,8.50
2022-09-11T08:20:52.886Z,8.40
2022-09-11T08:23:23.562Z,8.36
2022-09-11T08:25:55.101Z,8.50
2022-09-11T08:28:25.651Z,8.56
2022-09-11T08:31:00.143Z,8.61
2022-09-11T08:33:31.830Z,8.67
2022-09-11T08:36:04.306Z,8.67
2022-09-11T08:38:36.174Z,8.56
2022-09-11T08:41:14.647Z,8.61
2022-09-11T08:43:53.031Z,8.67
2022-09-11T08:46:27.455Z,8.66
2022-09-11T08:49:12.309Z,8.70
2022-09-11T08:51:43.765Z,8.78
2022-09-11T08:54:28.877Z,8.77
2022-09-11T08:57:14.072Z,8.71
2022-09-11T09:00:03.597Z,8.63
2022-09-11T09:02:56.267Z,8.57
2022-09-11T09:05:44.628Z,8.61
2022-09-11T09:08:36.488Z,8.53
2022-09-11T09:11:38.791Z,8.47
2022-09-11T09:14:15.955Z,8.39
2022-09-11T09:17:31.825Z,8.50
2022-09-11T09:20:10.577Z,8.63
2022-09-11T09:23:04.228Z,8.63
2022-09-11T09:25:41.650Z,8.67
2022-09-11T09:28:30.621Z,8.57
2022-09-11T09:31:05.213Z,8.54
2022-09-11T09:33:45.751Z,8.56
2022-09-11T09:36:18.779Z,8.43
2022-09-11T09:38:50.237Z,8.18
2022-09-11T09:41:26.542Z,8.12
2022-09-11T09:44:05.993Z,8.03
2022-09-11T09:46:51.197Z,8.08
2022-09-11T09:49:36.423Z,7.99
2022-09-11T09:52:28.210Z,8.22
2022-09-11T09:55:04.209Z,8.19
2022-09-11T09:57:41.231Z,8.26
2022-09-11T10:00:11.388Z,8.32
2022-09-11T10:02:46.772Z,8.40
2022-09-11T10:05:33.952Z,8.30
2022-09-11T10:08:06.958Z,8.24
2022-09-11T10:10:39.512Z,8.32
2022-09-11T10:13:26.686Z,8.25
2022-09-11T10:16:05.539Z,8.40
2022-09-11T10:18:48.064Z,8.36
2022-09-11T10:21:39.391Z,8.50
2022-09-11T10:24:27.593Z,8.50
2022-09-11T10:26:59.854Z,8.67
2022-09-11T10:29:32.007Z,8.68
2022-09-11T10:32:04.519Z,8.56
2022-09-11T10:34:39.260Z,8.56
2022-09-11T10:37:32.827Z,8.73
2022-09-11T10:40:21.931Z,8.85
2022-09-11T10:42:54.042Z,8.84
2022-09-11T10:45:25.889Z,8.97
2022-09-11T10:47:56.398Z,9.07
2022-09-11T10:50:28.119Z,9.04
2022-09-11T10:53:19.945Z,9.12
2022-09-11T10:56:01.492Z,9.22
2022-09-11T10:58:36.243Z,9.21
2022-09-11T11:01:06.741Z,9.18
2022-09-11T11:03:37.850Z,9.25
2022-09-11T11:06:27.121Z,9.38
2022-09-11T11:09:18.943Z,9.53
2022-09-11T11:12:16.337Z,9.66
2022-09-11T11:15:07.816Z,9.63
2022-09-11T11:18:02.610Z,9.79
2022-09-11T11:21:01.875Z,9.89
2022-09-11T11:24:04.322Z,10.00
2022-09-11T11:26:47.838Z,10.17
2022-09-11T11:29:19.707Z,10.21
2022-09-11T11:32:22.859Z,10.18
2022-09-11T11:35:19.662Z,10.29
2022-09-11T11:38:04.794Z,10.47
2022-09-11T11:40:48.405Z,10.50
2022-09-11T11:43:26.727Z,10.58
2022-09-11T11:46:06.409Z,10.69
2022-09-11T11:48:46.381Z,10.82
2022-09-11T11:51:22.428Z,10.95
2022-09-11T11:54:21.796Z,11.03
2022-09-11T11:57:03.230Z,11.13
2022-09-11T11:59:43.000Z,11.29
2022-09-11T12:02:13.391Z,11.42
2022-09-11T12:04:58.086Z,11.44
2022-09-11T12:07:40.553Z,11.50
2022-09-11T12:10:28.613Z,11.63
2022-09-11T12:13:03.446Z,11.73
2022-09-11T12:15:35.970Z,11.80
2022-09-11T12:18:25.606Z,12.01
2022-09-11T12:21:24.528Z,12.18
2022-09-11T12:24:01.193Z,12.35
2022-09-11T12:26:33.097Z,12.56
2022-09-11T12:29:21.457Z,12.73
2022-09-11T12:31:51.812Z,12.79
2022-09-11T12:34:47.975Z,12.90
2022-09-11T12:37:34.999Z,13.06
2022-09-11T12:40:32.205Z,13.13
2022-09-11T12:43:37.155Z,13.37
2022-09-11T12:46:13.073Z,13.54
2022-09-11T12:48:56.281Z,13.58
2022-09-11T12:51:39.009Z,13.81
2022-09-11T12:54:26.769Z,14.09
2022-09-11T12:57:16.760Z,14.34
2022-09-11T12:59:55.136Z,14.41
2022-09-11T13:02:37.401Z,14.60
2022-09-11T13:05:20.828Z,14.73
2022-09-11T13:07:56.656Z,14.87
2022-09-11T13:10:35.175Z,15.07
2022-09-11T13:13:48.240Z,15.12
2022-09-11T13:16:30.327Z,15.14
2022-09-11T13:19:23.726Z,15.42
2022-09-11T13:21:54.834Z,15.56
2022-09-11T13:24:36.233Z,15.77
2022-09-11T13:27:17.967Z,15.99
2022-09-11T13:29:49.828Z,15.91
2022-09-11T13:32:20.990Z,15.63
2022-09-11T13:35:00.000Z,15.49
2022-09-11T13:37:39.310Z,15.53
2022-09-11T13:40:21.433Z,15.45
2022-09-11T13:42:51.968Z,15.50
2022-09-11T13:45:23.556Z,15.43
2022-09-11T13:47:55.984Z,15.11
2022-09-11T13:50:26.639Z,14.91
2022-09-11T13:52:57.270Z,14.99
2022-09-11T13:55:28.900Z,15.14
2022-09-11T13:58:04.473Z,15.11
2022-09-11T14:00:41.125Z,15.36
2022-09-11T14:03:35.173Z,15.24
2022-09-11T14:06:12.709Z,14.98
2022-09-11T14:08:53.076Z,15.15
2022-09-11T14:11:30.997Z,16.20
2022-09-11T14:14:13.393Z,16.21
2022-09-11T14:16:51.043Z,15.94
2022-09-11T14:19:25.823Z,16.72
2022-09-11T14:21:56.304Z,17.02
2022-09-11T14:24:38.559Z,16.07
2022-09-11T14:27:34.818Z,16.35
2022-09-11T14:30:26.394Z,16.37
2022-09-11T14:33:18.229Z,16.92
2022-09-11T14:35:50.126Z,17.33
2022-09-11T14:38:23.361Z,17.67
2022-09-11T14:41:01.928Z,17.75
2022-09-11T14:43:34.710Z,17.73
2022-09-11T14:46:05.772Z,17.63
2022-09-11T14:48:37.117Z,17.91
2022-09-11T14:51:11.413Z,18.21
2022-09-11T14:53:44.561Z,18.42
2022-09-11T14:56:15.112Z,18.64
2022-09-11T14:58:45.576Z,18.83
2022-09-11T15:01:15.583Z,18.66
2022-09-11T15:03:46.096Z,18.86
2022-09-11T15:06:21.775Z,19.08
2022-09-11T15:08:52.087Z,19.64
2022-09-11T15:11:22.508Z,19.34
2022-09-11T15:14:14.454Z,18.93
2022-09-11T15:16:44.247Z,18.93
2022-09-11T15:19:16.641Z,18.80
2022-09-11T15:21:47.236Z,19.34
2022-09-11T15:24:18.377Z,19.65
2022-09-11T15:26:48.983Z,19.92
2022-09-11T15:29:19.455Z,20.13
2022-09-11T15:31:50.891Z,20.09
2022-09-11T15:34:23.634Z,19.99
2022-09-11T15:36:54.152Z,20.10
2022-09-11T15:39:25.763Z,20.16
2022-09-11T15:41:57.808Z,19.87
2022-09-11T15:44:30.005Z,20.08
2022-09-11T15:47:00.961Z,19.86
2022-09-11T15:49:32.964Z,19.62
2022-09-11T15:52:04.285Z,20.08
2022-09-11T15:54:34.750Z,20.15
2022-09-11T15:57:06.035Z,20.10
2022-09-11T15:59:36.550Z,20.40
2022-09-11T16:02:06.987Z,20.51
2022-09-11T16:04:37.601Z,20.48
2022-09-11T16:07:08.194Z,20.40
2022-09-11T16:09:38.765Z,20.78
2022-09-11T16:12:09.634Z,20.73
2022-09-11T16:14:40.040Z,20.37
2022-09-11T16:17:13.166Z,20.64
2022-09-11T16:19:43.632Z,20.87
2022-09-11T16:22:14.129Z,20.71
2022-09-11T16:24:44.807Z,21.21
2022-09-11T16:27:15.208Z,21.53
2022-09-11T16:32:40.524Z,21.12
2022-09-11T16:35:14.619Z,20.51
2022-09-11T16:37:45.486Z,21.06
2022-09-11T16:40:16.323Z,21.50
2022-09-11T16:42:47.138Z,21.87
2022-09-11T16:45:17.613Z,21.94
2022-09-11T16:47:48.454Z,21.69
2022-09-11T16:50:19.078Z,21.77
2022-09-11T16:52:49.690Z,21.83
2022-09-11T16:55:21.549Z,22.11
2022-09-11T16:57:51.965Z,21.92
2022-09-11T17:00:23.015Z,22.00
2022-09-11T17:02:53.635Z,21.22
2022-09-11T17:05:24.017Z,22.10
2022-09-11T17:07:54.449Z,22.13
2022-09-11T17:10:25.203Z,22.48
2022-09-11T17:12:58.483Z,22.49
2022-09-11T17:15:29.626Z,22.06
2022-09-11T17:18:00.088Z,21.08
2022-09-11T17:20:30.529Z,21.14
2022-09-11T17:23:01.328Z,21.75
2022-09-11T17:25:33.089Z,21.72
2022-09-11T17:28:03.801Z,22.00
2022-09-11T17:30:34.648Z,22.06
2022-09-11T17:33:05.306Z,20.60
2022-09-11T17:35:36.455Z,20.20
2022-09-11T17:38:07.070Z,20.65
2022-09-11T17:40:37.968Z,19.59
2022-09-11T17:43:09.216Z,19.65
2022-09-11T17:45:39.676Z,19.41
2022-09-11T17:48:10.104Z,21.05
2022-09-11T17:50:40.509Z,23.36
2022-09-11T17:53:11.000Z,23.87
2022-09-11T17:55:41.714Z,21.52
2022-09-11T17:58:12.047Z,22.88
2022-09-11T18:00:42.514Z,23.74
2022-09-11T18:03:13.018Z,24.36
2022-09-11T18:05:45.077Z,24.42
2022-09-11T18:08:15.697Z,23.49
2022-09-11T18:11:01.016Z,24.07
2022-09-11T18:13:33.160Z,23.63
2022-09-11T18:16:09.605Z,24.09
2022-09-11T18:18:41.841Z,25.40
2022-09-11T18:21:13.630Z,25.75
2022-09-11T18:23:46.274Z,26.05
2022-09-11T18:26:29.837Z,24.25
2022-09-11T18:29:02.703Z,23.58
2022-09-11T18:31:34.843Z,22.35
2022-09-11T18:34:05.424Z,21.85
2022-09-11T18:36:35.979Z,21.83
2022-09-11T18:39:07.215Z,20.33
2022-09-11T18:41:38.291Z,19.15
2022-09-11T18:44:17.443Z,18.76
2022-09-11T18:46:53.482Z,18.42
2022-09-11T18:49:24.468Z,20.98
2022-09-11T18:51:55.067Z,23.34
2022-09-11T18:54:26.864Z,24.94
2022-09-11T18:56:57.310Z,24.49
2022-09-11T18:59:27.973Z,20.23
2022-09-11T19:02:00.292Z,19.65
2022-09-11T19:04:30.910Z,20.74
2022-09-11T19:07:01.365Z,21.90
2022-09-11T19:09:31.985Z,23.68
2022-09-11T19:12:04.788Z,23.68
2022-09-11T19:14:37.184Z,22.04
2022-09-11T19:17:07.709Z,19.95
2022-09-11T19:19:38.136Z,19.62
2022-09-11T19:22:08.496Z,19.30
2022-09-11T19:24:39.223Z,18.87
2022-09-11T19:27:09.560Z,18.62
2022-09-11T19:29:39.857Z,18.96
2022-09-11T19:32:10.194Z,19.31
2022-09-11T19:34:47.005Z,19.47
2022-09-11T19:37:19.822Z,19.58
2022-09-11T19:39:52.079Z,18.57
2022-09-11T19:42:22.447Z,18.35
2022-09-11T19:44:56.180Z,18.53
2022-09-11T19:47:27.758Z,19.07
2022-09-11T19:50:00.224Z,18.79
2022-09-11T19:52:33.058Z,18.66
2022-09-11T19:55:05.156Z,17.95
2022-09-11T19:57:35.607Z,17.81
2022-09-11T20:00:06.526Z,18.26
2022-09-11T20:02:36.981Z,18.36
2022-09-11T20:05:07.795Z,18.19
2022-09-11T20:07:39.184Z,18.28
2022-09-11T20:10:10.110Z,18.76
2022-09-11T20:12:40.667Z,18.80
2022-09-11T20:15:11.872Z,18.09
2022-09-11T20:17:45.611Z,17.70
2022-09-11T20:20:16.252Z,17.60
2022-09-11T20:22:46.625Z,17.57
2022-09-11T20:25:17.215Z,17.39
2022-09-11T20:27:47.922Z,17.33
2022-09-11T20:30:18.850Z,17.08
2022-09-11T20:32:49.343Z,16.95
2022-09-11T20:35:20.033Z,16.98
2022-09-11T20:37:50.477Z,16.99
2022-09-11T20:40:21.874Z,16.78
2022-09-11T20:42:52.260Z,16.72
2022-09-11T20:45:22.557Z,16.67
2022-09-11T20:47:54.476Z,16.49
2022-09-11T20:50:25.604Z,16.48
2022-09-11T20:52:55.870Z,16.48
2022-09-11T20:55:26.331Z,17.41
2022-09-11T20:57:56.895Z,17.33
2022-09-11T21:00:27.458Z,16.64
2022-09-11T21:02:58.166Z,16.20
2022-09-11T21:05:28.918Z,15.97
2022-09-11T21:07:59.363Z,15.80
2022-09-11T21:10:29.897Z,15.69
2022-09-11T21:13:00.122Z,15.63
2022-09-11T21:15:30.777Z,15.56
2022-09-11T21:18:01.133Z,15.55
2022-09-11T21:20:31.058Z,15.40
2022-09-11T21:23:01.091Z,15.32
2022-09-11T21:25:31.714Z,15.25
2022-09-11T21:28:02.086Z,15.28
2022-09-11T21:30:32.545Z,15.17
2022-09-11T21:33:02.488Z,15.14
2022-09-11T21:35:32.452Z,15.07
2022-09-11T21:38:02.899Z,15.01
2022-09-11T21:40:33.373Z,14.88
2022-09-11T21:43:03.837Z,14.87
2022-09-11T21:45:34.229Z,14.84
2022-09-11T21:48:06.902Z,14.76
2022-09-11T21:50:38.800Z,14.67
2022-09-11T21:53:11.866Z,14.70
2022-09-11T21:55:47.254Z,14.67
2022-09-11T21:58:23.136Z,14.63
2022-09-11T22:00:53.677Z,14.71
2022-09-11T22:03:28.592Z,14.71
2022-09-11T22:05:59.588Z,14.57
2022-09-11T22:08:30.122Z,14.61
2022-09-11T22:11:06.878Z,14.54
2022-09-11T22:13:39.721Z,14.44
2022-09-11T22:16:17.141Z,14.41
2022-09-11T22:18:53.480Z,14.57
2022-09-11T22:21:24.405Z,14.53
2022-09-11T22:23:56.328Z,14.40
2022-09-11T22:26:26.927Z,14.32
2022-09-11T22:28:59.159Z,14.27
2022-09-11T22:31:30.434Z,14.19
2022-09-11T22:34:01.606Z,14.10
2022-09-11T22:36:33.779Z,14.04
2022-09-11T22:39:06.618Z,14.01
2022-09-11T22:41:37.234Z,13.94
2022-09-11T22:44:08.022Z,13.88
2022-09-11T22:46:39.136Z,13.85
2022-09-11T22:49:11.208Z,13.86
2022-09-11T22:51:41.896Z,13.75
2022-09-11T22:54:15.124Z,13.71
2022-09-11T22:56:46.079Z,13.66
2022-09-11T22:59:16.763Z,13.62
2022-09-11T23:01:47.480Z,13.64
2022-09-11T23:04:18.165Z,13.62
2022-09-11T23:07:06.676Z,13.62
2022-09-11T23:09:40.128Z,13.47
2022-09-11T23:12:10.986Z,13.45
2022-09-11T23:14:41.645Z,13.47
2022-09-11T23:17:12.209Z,13.47
2022-09-11T23:19:42.238Z,13.41
2022-09-11T23:22:12.568Z,13.30
2022-09-11T23:24:42.569Z,13.30
2022-09-11T23:27:12.834Z,13.25
2022-09-11T23:29:43.512Z,13.27
2022-09-11T23:32:14.619Z,13.33
2022-09-11T23:34:45.287Z,13.28
2022-09-11T23:37:15.690Z,13.43
2022-09-11T23:39:46.387Z,13.51
2022-09-11T23:42:17.650Z,13.21
2022-09-11T23:44:48.213Z,13.13
2022-09-11T23:47:19.663Z,13.13
2022-09-11T23:49:50.684Z,13.21
2022-09-11T23:52:21.259Z,13.27
2022-09-11T23:54:51.197Z,13.28
2022-09-11T23:57:21.764Z,13.24
2022-09-11T23:59:51.549Z,13.20
